createdAt,value
2019-02-20T00:01:42.065Z,1011.99
2019-02-20T00:02:42.061Z,1011.95
2019-02-20T00:03:42.251Z,1011.91
2019-02-20T00:04:42.043Z,1011.95
2019-02-20T00:05:42.032Z,1011.98
2019-02-20T00:06:42.048Z,1011.94
2019-02-20T00:07:42.011Z,1011.96
2019-02-20T00:08:42.005Z,1011.97
2019-02-20T00:09:41.998Z,1011.97
2019-02-20T00:11:41.982Z,1012.01
2019-02-20T00:12:41.977Z,1012.01
2019-02-20T00:14:41.955Z,1012.01
2019-02-20T00:15:42.153Z,1012.00
2019-02-20T00:16:41.939Z,1012.02
2019-02-20T00:18:41.919Z,1012.05
2019-02-20T00:19:41.915Z,1012.07
2019-02-20T00:20:41.906Z,1012.08
2019-02-20T00:21:41.899Z,1012.01
2019-02-20T00:22:42.089Z,1012.05
2019-02-20T00:23:41.878Z,1012.04
2019-02-20T00:24:41.870Z,1012.05
2019-02-20T00:25:42.119Z,1012.08
2019-02-20T00:26:41.854Z,1012.10
2019-02-20T00:27:41.843Z,1012.03
2019-02-20T00:28:41.837Z,1012.07
2019-02-20T00:29:41.826Z,1012.04
2019-02-20T00:30:41.820Z,1012.10
2019-02-20T00:32:15.022Z,1012.07
2019-02-20T00:32:41.815Z,1012.07
2019-02-20T00:34:41.781Z,1012.06
2019-02-20T00:35:41.775Z,1012.03
2019-02-20T00:36:41.768Z,1012.03
2019-02-20T00:38:41.747Z,1012.00
2019-02-20T00:40:14.949Z,1011.99
2019-02-20T00:40:41.734Z,1012.03
2019-02-20T00:41:41.718Z,1012.00
2019-02-20T00:43:41.705Z,1011.96
2019-02-20T00:44:41.697Z,1011.97
2019-02-20T00:46:41.685Z,1011.98
2019-02-20T00:47:41.672Z,1012.00
2019-02-20T00:48:41.665Z,1012.02
2019-02-20T00:49:41.859Z,1011.99
2019-02-20T00:50:41.641Z,1012.01
2019-02-20T00:51:41.640Z,1012.01
2019-02-20T00:52:49.661Z,1012.03
2019-02-20T00:53:41.620Z,1012.04
2019-02-20T00:54:41.619Z,1012.08
2019-02-20T00:55:41.807Z,1012.09
2019-02-20T00:57:41.589Z,1012.13
2019-02-20T00:58:41.573Z,1012.12
2019-02-20T00:59:41.569Z,1012.15
2019-02-20T01:00:41.561Z,1012.17
2019-02-20T01:01:41.556Z,1012.17
2019-02-20T01:03:41.537Z,1012.18
2019-02-20T01:04:41.521Z,1012.17
2019-02-20T01:05:41.715Z,1012.20
2019-02-20T01:07:41.702Z,1012.15
2019-02-20T01:08:41.489Z,1012.16
2019-02-20T01:09:41.482Z,1012.13
2019-02-20T01:10:41.473Z,1012.12
2019-02-20T01:11:41.461Z,1012.17
2019-02-20T01:12:41.455Z,1012.13
2019-02-20T01:13:41.450Z,1012.15
2019-02-20T01:14:41.445Z,1012.19
2019-02-20T01:15:41.427Z,1012.21
2019-02-20T01:16:41.630Z,1012.19
2019-02-20T01:17:41.418Z,1012.17
2019-02-20T01:18:41.410Z,1012.17
2019-02-20T01:22:41.375Z,1012.18
2019-02-20T01:23:41.367Z,1012.20
2019-02-20T01:24:41.355Z,1012.20
2019-02-20T01:26:41.337Z,1012.20
2019-02-20T01:27:41.326Z,1012.18
2019-02-20T01:29:41.514Z,1012.14
2019-02-20T01:30:41.309Z,1012.10
2019-02-20T01:31:41.292Z,1012.11
2019-02-20T01:32:41.284Z,1012.14
2019-02-20T01:33:41.285Z,1012.16
2019-02-20T01:34:41.272Z,1012.16
2019-02-20T01:35:41.261Z,1012.15
2019-02-20T01:36:41.258Z,1012.18
2019-02-20T01:37:41.246Z,1012.16
2019-02-20T01:39:41.432Z,1012.15
2019-02-20T01:41:41.211Z,1012.15
2019-02-20T01:42:41.208Z,1012.12
2019-02-20T01:43:41.201Z,1012.15
2019-02-20T01:44:41.191Z,1012.17
2019-02-20T01:45:41.184Z,1012.16
2019-02-20T01:46:41.170Z,1012.14
2019-02-20T01:47:41.171Z,1012.15
2019-02-20T01:48:41.151Z,1012.15
2019-02-20T01:49:41.144Z,1012.16
2019-02-20T01:51:41.134Z,1012.11
2019-02-20T01:52:41.120Z,1012.10
2019-02-20T01:53:41.114Z,1012.08
2019-02-20T01:54:41.099Z,1012.08
2019-02-20T01:55:41.293Z,1012.04
2019-02-20T01:56:41.083Z,1012.05
2019-02-20T01:57:41.282Z,1012.01
2019-02-20T01:58:41.276Z,1012.06
2019-02-20T01:59:41.065Z,1012.08
2019-02-20T02:00:41.054Z,1012.09
2019-02-20T02:01:41.046Z,1012.07
2019-02-20T02:03:41.028Z,1012.10
2019-02-20T02:04:41.015Z,1012.10
2019-02-20T02:06:41.002Z,1012.09
2019-02-20T02:07:40.990Z,1012.13
2019-02-20T02:08:40.985Z,1012.12
2019-02-20T02:09:40.979Z,1012.13
2019-02-20T02:11:40.967Z,1012.13
2019-02-20T02:12:40.957Z,1012.15
2019-02-20T02:13:40.948Z,1012.18
2019-02-20T02:14:40.942Z,1012.15
2019-02-20T02:15:40.930Z,1012.19
2019-02-20T02:16:40.923Z,1012.14
2019-02-20T02:17:40.912Z,1012.14
2019-02-20T02:18:40.904Z,1012.07
2019-02-20T02:20:41.110Z,1012.07
2019-02-20T02:21:40.881Z,1012.06
2019-02-20T02:22:40.868Z,1012.06
2019-02-20T02:23:40.861Z,1012.02
2019-02-20T02:24:40.852Z,1012.04
2019-02-20T02:25:40.846Z,1012.01
2019-02-20T02:26:40.842Z,1012.02
2019-02-20T02:27:40.831Z,1011.99
2019-02-20T02:28:40.827Z,1011.98
2019-02-20T02:30:40.804Z,1012.01
2019-02-20T02:32:40.795Z,1011.94
2019-02-20T02:33:40.781Z,1011.94
2019-02-20T02:34:40.971Z,1011.91
2019-02-20T02:35:40.763Z,1011.90
2019-02-20T02:37:40.757Z,1011.85
2019-02-20T02:38:40.748Z,1011.86
2019-02-20T02:39:40.727Z,1011.87
2019-02-20T02:40:40.722Z,1011.91
2019-02-20T02:41:40.716Z,1011.95
2019-02-20T02:42:40.760Z,1011.97
2019-02-20T02:43:40.703Z,1011.94
2019-02-20T02:44:40.903Z,1011.94
2019-02-20T02:45:40.681Z,1011.94
2019-02-20T02:46:40.671Z,1011.92
2019-02-20T02:47:40.677Z,1011.91
2019-02-20T02:48:40.662Z,1011.93
2019-02-20T02:49:40.647Z,1011.88
2019-02-20T02:50:40.638Z,1011.87
2019-02-20T02:51:40.638Z,1011.93
2019-02-20T02:52:40.626Z,1011.89
2019-02-20T02:53:40.618Z,1011.87
2019-02-20T02:54:40.612Z,1011.89
2019-02-20T02:55:40.596Z,1011.86
2019-02-20T02:56:40.593Z,1011.87
2019-02-20T02:57:40.585Z,1011.92
2019-02-20T02:58:40.580Z,1011.86
2019-02-20T02:59:40.571Z,1011.90
2019-02-20T03:01:40.554Z,1011.93
2019-02-20T03:02:40.540Z,1011.89
2019-02-20T03:03:40.533Z,1011.94
2019-02-20T03:04:40.534Z,1011.91
2019-02-20T03:05:40.514Z,1011.93
2019-02-20T03:07:40.499Z,1011.92
2019-02-20T03:08:40.495Z,1011.93
2019-02-20T03:10:40.481Z,1011.98
2019-02-20T03:11:40.471Z,1011.96
2019-02-20T03:13:40.452Z,1011.96
2019-02-20T03:15:40.434Z,1011.97
2019-02-20T03:16:40.433Z,1012.01
2019-02-20T03:17:40.418Z,1012.02
2019-02-20T03:18:40.413Z,1012.02
2019-02-20T03:19:40.406Z,1012.04
2019-02-20T03:20:40.398Z,1012.04
2019-02-20T03:21:40.390Z,1012.00
2019-02-20T03:23:40.741Z,1012.00
2019-02-20T03:24:40.569Z,1011.98
2019-02-20T03:26:40.347Z,1011.97
2019-02-20T03:27:40.541Z,1012.02
2019-02-20T03:28:40.538Z,1011.99
2019-02-20T03:29:40.322Z,1011.98
2019-02-20T03:30:40.317Z,1012.02
2019-02-20T03:31:40.308Z,1012.00
2019-02-20T03:32:40.300Z,1011.99
2019-02-20T03:33:40.301Z,1012.00
2019-02-20T03:34:40.279Z,1012.01
2019-02-20T03:35:40.279Z,1012.01
2019-02-20T03:36:40.266Z,1011.98
2019-02-20T03:37:40.461Z,1011.99
2019-02-20T03:38:40.254Z,1012.05
2019-02-20T03:39:40.458Z,1012.04
2019-02-20T03:40:40.233Z,1012.00
2019-02-20T03:41:40.226Z,1012.03
2019-02-20T03:42:40.222Z,1012.05
2019-02-20T03:43:40.205Z,1012.03
2019-02-20T03:44:40.200Z,1012.03
2019-02-20T03:45:40.203Z,1012.00
2019-02-20T03:46:40.181Z,1012.03
2019-02-20T03:47:40.179Z,1012.02
2019-02-20T03:48:40.169Z,1012.05
2019-02-20T03:49:40.163Z,1012.05
2019-02-20T03:50:40.161Z,1012.06
2019-02-20T03:51:40.141Z,1012.08
2019-02-20T03:52:40.132Z,1012.11
2019-02-20T03:53:50.883Z,1012.11
2019-02-20T03:54:40.118Z,1012.10
2019-02-20T03:55:40.113Z,1012.09
2019-02-20T03:56:40.108Z,1012.09
2019-02-20T03:57:40.091Z,1012.08
2019-02-20T03:58:40.091Z,1012.12
2019-02-20T03:59:40.083Z,1012.12
2019-02-20T04:00:40.277Z,1012.12
2019-02-20T04:01:40.064Z,1012.10
2019-02-20T04:02:40.055Z,1012.10
2019-02-20T04:03:40.047Z,1012.13
2019-02-20T04:04:40.034Z,1012.14
2019-02-20T04:05:40.033Z,1012.11
2019-02-20T04:06:40.018Z,1012.09
2019-02-20T04:07:40.014Z,1012.12
2019-02-20T04:08:40.006Z,1012.10
2019-02-20T04:10:39.994Z,1012.13
2019-02-20T04:12:39.977Z,1012.11
2019-02-20T04:13:39.965Z,1012.10
2019-02-20T04:14:39.955Z,1012.09
2019-02-20T04:15:39.953Z,1012.13
2019-02-20T04:16:39.943Z,1012.20
2019-02-20T04:19:40.124Z,1012.13
2019-02-20T04:20:39.909Z,1012.16
2019-02-20T04:21:39.900Z,1012.14
2019-02-20T04:22:39.891Z,1012.11
2019-02-20T04:23:39.881Z,1012.10
2019-02-20T04:26:40.060Z,1012.05
2019-02-20T04:27:39.853Z,1012.08
2019-02-20T04:28:39.844Z,1012.04
2019-02-20T04:30:39.823Z,1012.00
2019-02-20T04:32:39.811Z,1012.05
2019-02-20T04:33:39.799Z,1012.08
2019-02-20T04:34:39.788Z,1012.07
2019-02-20T04:35:39.785Z,1012.06
2019-02-20T04:36:39.776Z,1012.09
2019-02-20T04:37:39.766Z,1012.11
2019-02-20T04:38:39.760Z,1012.08
2019-02-20T04:39:40.960Z,1012.13
2019-02-20T04:41:39.770Z,1012.09
2019-02-20T04:42:39.724Z,1012.03
2019-02-20T04:43:39.716Z,1011.99
2019-02-20T04:44:39.706Z,1012.03
2019-02-20T04:45:39.737Z,1012.02
2019-02-20T04:46:39.688Z,1012.00
2019-02-20T04:47:39.685Z,1011.98
2019-02-20T04:48:40.075Z,1012.01
2019-02-20T04:49:39.663Z,1011.99
2019-02-20T04:50:39.655Z,1012.02
2019-02-20T04:51:39.651Z,1012.01
2019-02-20T04:52:39.645Z,1012.03
2019-02-20T04:53:39.635Z,1012.09
2019-02-20T04:55:39.614Z,1012.06
2019-02-20T04:56:39.605Z,1012.04
2019-02-20T04:58:39.800Z,1012.07
2019-02-20T04:59:39.593Z,1012.06
2019-02-20T05:00:39.611Z,1012.08
2019-02-20T05:01:39.567Z,1012.10
2019-02-20T05:02:39.560Z,1012.09
2019-02-20T05:03:39.554Z,1012.09
2019-02-20T05:04:39.539Z,1012.09
2019-02-20T05:05:39.533Z,1012.14
2019-02-20T05:06:39.531Z,1012.12
2019-02-20T05:07:39.718Z,1012.09
2019-02-20T05:08:39.507Z,1012.14
2019-02-20T05:09:39.797Z,1012.13
2019-02-20T05:10:39.496Z,1012.12
2019-02-20T05:11:39.490Z,1012.12
2019-02-20T05:13:39.468Z,1012.14
2019-02-20T05:15:39.453Z,1012.13
2019-02-20T05:16:39.442Z,1012.09
2019-02-20T05:17:39.446Z,1012.08
2019-02-20T05:18:39.424Z,1012.11
2019-02-20T05:19:39.417Z,1012.11
2019-02-20T05:20:39.416Z,1012.08
2019-02-20T05:21:39.407Z,1012.10
2019-02-20T05:22:39.394Z,1012.09
2019-02-20T05:23:39.393Z,1012.10
2019-02-20T05:24:39.370Z,1012.15
2019-02-20T05:25:39.369Z,1012.13
2019-02-20T05:26:39.360Z,1012.11
2019-02-20T05:27:39.386Z,1012.11
2019-02-20T05:28:39.342Z,1012.11
2019-02-20T05:29:39.534Z,1012.12
2019-02-20T05:30:39.533Z,1012.12
2019-02-20T05:31:39.321Z,1012.11
2019-02-20T05:32:39.306Z,1012.10
2019-02-20T05:33:39.303Z,1012.06
2019-02-20T05:35:39.280Z,1012.05
2019-02-20T05:37:12.484Z,1012.06
2019-02-20T05:37:39.771Z,1012.08
2019-02-20T05:38:39.253Z,1012.06
2019-02-20T05:41:39.226Z,1012.06
2019-02-20T05:42:39.242Z,1012.07
2019-02-20T05:43:39.209Z,1012.03
2019-02-20T05:45:39.206Z,1012.03
2019-02-20T05:46:39.184Z,1012.07
2019-02-20T05:47:39.181Z,1012.08
2019-02-20T05:48:39.174Z,1012.02
2019-02-20T05:49:39.170Z,1012.10
2019-02-20T05:50:39.159Z,1012.05
2019-02-20T05:51:39.146Z,1011.99
2019-02-20T05:52:39.132Z,1012.03
2019-02-20T05:53:39.128Z,1012.02
2019-02-20T05:54:39.123Z,1012.01
2019-02-20T05:55:39.113Z,1012.07
2019-02-20T05:56:39.099Z,1012.08
2019-02-20T05:57:39.096Z,1012.05
2019-02-20T05:58:39.284Z,1012.05
2019-02-20T05:59:39.077Z,1012.09
2019-02-20T06:00:39.071Z,1012.09
2019-02-20T06:01:39.059Z,1012.12
2019-02-20T06:02:39.056Z,1012.13
2019-02-20T06:03:39.042Z,1012.14
2019-02-20T06:04:39.051Z,1012.17
2019-02-20T06:05:39.245Z,1012.18
2019-02-20T06:06:39.020Z,1012.16
2019-02-20T06:07:39.017Z,1012.17
2019-02-20T06:09:40.227Z,1012.14
2019-02-20T06:10:38.984Z,1012.15
2019-02-20T06:12:38.969Z,1012.17
2019-02-20T06:13:38.954Z,1012.20
2019-02-20T06:14:38.951Z,1012.17
2019-02-20T06:15:39.136Z,1012.20
2019-02-20T06:17:39.127Z,1012.27
2019-02-20T06:18:38.917Z,1012.25
2019-02-20T06:19:38.904Z,1012.26
2019-02-20T06:20:38.897Z,1012.26
2019-02-20T06:21:38.890Z,1012.30
2019-02-20T06:22:38.881Z,1012.25
2019-02-20T06:24:44.166Z,1012.34
2019-02-20T06:25:38.847Z,1012.30
2019-02-20T06:26:38.841Z,1012.28
2019-02-20T06:27:38.837Z,1012.33
2019-02-20T06:28:38.830Z,1012.32
2019-02-20T06:29:38.812Z,1012.34
2019-02-20T06:31:39.009Z,1012.32
2019-02-20T06:32:38.786Z,1012.37
2019-02-20T06:33:38.795Z,1012.36
2019-02-20T06:34:38.769Z,1012.37
2019-02-20T06:36:38.958Z,1012.40
2019-02-20T06:37:38.750Z,1012.40
2019-02-20T06:38:38.739Z,1012.41
2019-02-20T06:39:38.726Z,1012.40
2019-02-20T06:40:38.723Z,1012.43
2019-02-20T06:41:39.618Z,1012.42
2019-02-20T06:42:38.708Z,1012.48
2019-02-20T06:43:38.894Z,1012.43
2019-02-20T06:44:38.683Z,1012.43
2019-02-20T06:45:38.694Z,1012.44
2019-02-20T06:46:38.665Z,1012.46
2019-02-20T06:47:38.667Z,1012.44
2019-02-20T06:48:38.659Z,1012.41
2019-02-20T06:49:38.643Z,1012.45
2019-02-20T06:52:38.611Z,1012.52
2019-02-20T06:53:38.611Z,1012.54
2019-02-20T06:55:38.591Z,1012.54
2019-02-20T06:56:38.583Z,1012.56
2019-02-20T06:57:38.780Z,1012.61
2019-02-20T06:58:38.571Z,1012.63
2019-02-20T07:00:38.549Z,1012.66
2019-02-20T07:01:38.534Z,1012.69
2019-02-20T07:02:38.536Z,1012.66
2019-02-20T07:03:38.727Z,1012.67
2019-02-20T07:04:38.509Z,1012.69
2019-02-20T07:07:38.483Z,1012.73
2019-02-20T07:08:38.477Z,1012.76
2019-02-20T07:09:38.471Z,1012.76
2019-02-20T07:10:38.467Z,1012.82
2019-02-20T07:11:38.451Z,1012.79
2019-02-20T07:12:38.446Z,1012.80
2019-02-20T07:13:38.645Z,1012.82
2019-02-20T07:14:38.627Z,1012.80
2019-02-20T07:15:38.421Z,1012.85
2019-02-20T07:16:38.416Z,1012.83
2019-02-20T07:17:38.407Z,1012.83
2019-02-20T07:18:38.400Z,1012.86
2019-02-20T07:19:38.389Z,1012.88
2019-02-20T07:20:38.378Z,1012.88
2019-02-20T07:21:38.375Z,1012.85
2019-02-20T07:22:38.567Z,1012.87
2019-02-20T07:23:38.352Z,1012.86
2019-02-20T07:24:38.341Z,1012.89
2019-02-20T07:25:38.355Z,1012.90
2019-02-20T07:26:38.326Z,1012.89
2019-02-20T07:27:38.318Z,1012.91
2019-02-20T07:28:38.314Z,1012.87
2019-02-20T07:29:38.301Z,1012.94
2019-02-20T07:30:38.301Z,1012.95
2019-02-20T07:31:38.489Z,1012.95
2019-02-20T07:32:38.279Z,1012.96
2019-02-20T07:34:38.265Z,1012.97
2019-02-20T07:35:38.249Z,1012.99
2019-02-20T07:36:38.242Z,1012.96
2019-02-20T07:37:38.243Z,1012.99
2019-02-20T07:38:38.230Z,1012.99
2019-02-20T07:39:38.216Z,1012.97
2019-02-20T07:40:38.417Z,1012.99
2019-02-20T07:41:38.206Z,1013.02
2019-02-20T07:42:38.191Z,1013.01
2019-02-20T07:43:38.183Z,1013.02
2019-02-20T07:46:38.165Z,1013.11
2019-02-20T07:47:38.155Z,1013.11
2019-02-20T07:48:38.154Z,1013.10
2019-02-20T07:49:38.141Z,1013.15
2019-02-20T07:50:38.128Z,1013.18
2019-02-20T07:51:38.323Z,1013.17
2019-02-20T07:52:38.118Z,1013.20
2019-02-20T07:53:38.102Z,1013.21
2019-02-20T07:54:38.094Z,1013.18
2019-02-20T07:55:38.288Z,1013.21
2019-02-20T07:56:38.077Z,1013.22
2019-02-20T07:57:38.072Z,1013.25
2019-02-20T07:58:38.066Z,1013.24
2019-02-20T07:59:38.055Z,1013.23
2019-02-20T08:02:38.037Z,1013.29
2019-02-20T08:03:38.023Z,1013.25
2019-02-20T08:04:38.015Z,1013.32
2019-02-20T08:05:38.012Z,1013.30
2019-02-20T08:06:37.999Z,1013.31
2019-02-20T08:07:37.999Z,1013.39
2019-02-20T08:08:37.986Z,1013.36
2019-02-20T08:10:39.200Z,1013.41
2019-02-20T08:11:37.965Z,1013.41
2019-02-20T08:12:37.958Z,1013.44
2019-02-20T08:13:39.549Z,1013.49
2019-02-20T08:14:37.940Z,1013.40
2019-02-20T08:15:37.932Z,1013.44
2019-02-20T08:16:37.925Z,1013.45
2019-02-20T08:17:37.917Z,1013.45
2019-02-20T08:18:37.912Z,1013.53
2019-02-20T08:19:37.904Z,1013.53
2019-02-20T08:20:37.893Z,1013.55
2019-02-20T08:21:37.886Z,1013.53
2019-02-20T08:22:37.882Z,1013.57
2019-02-20T08:23:37.870Z,1013.54
2019-02-20T08:24:37.902Z,1013.63
2019-02-20T08:25:37.859Z,1013.60
2019-02-20T08:26:37.851Z,1013.58
2019-02-20T08:27:37.847Z,1013.61
2019-02-20T08:30:37.821Z,1013.67
2019-02-20T08:31:37.821Z,1013.71
2019-02-20T08:32:37.816Z,1013.71
2019-02-20T08:33:38.005Z,1013.65
2019-02-20T08:34:37.995Z,1013.66
2019-02-20T08:35:37.995Z,1013.69
2019-02-20T08:36:37.785Z,1013.72
2019-02-20T08:37:37.795Z,1013.71
2019-02-20T08:38:37.767Z,1013.67
2019-02-20T08:39:37.762Z,1013.64
2019-02-20T08:40:37.753Z,1013.67
2019-02-20T08:41:37.749Z,1013.68
2019-02-20T08:42:37.745Z,1013.71
2019-02-20T08:43:37.735Z,1013.69
2019-02-20T08:44:37.733Z,1013.74
2019-02-20T08:45:37.728Z,1013.73
2019-02-20T08:46:37.918Z,1013.74
2019-02-20T08:47:37.707Z,1013.77
2019-02-20T08:48:37.701Z,1013.82
2019-02-20T08:49:37.690Z,1013.79
2019-02-20T08:50:37.682Z,1013.79
2019-02-20T08:52:37.878Z,1013.78
2019-02-20T08:53:37.670Z,1013.92
2019-02-20T08:54:37.663Z,1013.83
2019-02-20T08:55:37.648Z,1013.82
2019-02-20T08:56:37.845Z,1013.83
2019-02-20T08:57:37.635Z,1013.84
2019-02-20T08:58:37.636Z,1013.85
2019-02-20T08:59:37.623Z,1013.83
2019-02-20T09:00:37.623Z,1013.87
2019-02-20T09:01:37.628Z,1013.87
2019-02-20T09:02:37.609Z,1013.88
2019-02-20T09:03:37.639Z,1013.90
2019-02-20T09:04:37.593Z,1013.93
2019-02-20T09:05:37.584Z,1013.91
2019-02-20T09:07:37.573Z,1013.90
2019-02-20T09:08:37.564Z,1013.91
2019-02-20T09:09:37.559Z,1013.94
2019-02-20T09:10:37.558Z,1013.97
2019-02-20T09:11:37.546Z,1013.98
2019-02-20T09:12:37.545Z,1013.94
2019-02-20T09:13:37.949Z,1013.93
2019-02-20T09:14:37.530Z,1013.99
2019-02-20T09:15:37.519Z,1013.99
2019-02-20T09:16:37.517Z,1014.05
2019-02-20T09:18:37.503Z,1014.00
2019-02-20T09:19:37.697Z,1014.01
2019-02-20T09:20:37.495Z,1014.05
2019-02-20T09:21:37.485Z,1014.05
2019-02-20T09:22:39.421Z,1014.08
2019-02-20T09:23:37.478Z,1014.07
2019-02-20T09:25:41.704Z,1014.04
2019-02-20T09:26:37.472Z,1014.17
2019-02-20T09:27:37.452Z,1014.08
2019-02-20T09:28:37.444Z,1014.01
2019-02-20T09:29:37.442Z,1014.08
2019-02-20T09:30:37.435Z,1014.12
2019-02-20T09:31:37.426Z,1014.07
2019-02-20T09:32:37.422Z,1014.08
2019-02-20T09:33:37.418Z,1014.08
2019-02-20T09:34:37.416Z,1014.13
2019-02-20T09:35:37.403Z,1014.07
2019-02-20T09:36:37.400Z,1014.12
2019-02-20T09:37:37.389Z,1014.13
2019-02-20T09:38:37.393Z,1014.08
2019-02-20T09:39:37.377Z,1014.09
2019-02-20T09:41:37.375Z,1014.14
2019-02-20T09:42:37.365Z,1014.08
2019-02-20T09:43:37.353Z,1014.15
2019-02-20T09:44:37.547Z,1014.14
2019-02-20T09:45:42.214Z,1014.12
2019-02-20T09:46:37.340Z,1014.11
2019-02-20T09:47:37.529Z,1014.14
2019-02-20T09:48:37.321Z,1014.15
2019-02-20T09:49:37.324Z,1014.18
2019-02-20T09:50:37.329Z,1014.14
2019-02-20T09:51:37.311Z,1014.21
2019-02-20T09:52:37.307Z,1014.19
2019-02-20T09:53:37.703Z,1014.26
2019-02-20T09:54:37.316Z,1014.23
2019-02-20T09:55:37.286Z,1014.19
2019-02-20T09:56:37.277Z,1014.28
2019-02-20T09:57:37.280Z,1014.20
2019-02-20T09:58:37.472Z,1014.19
2019-02-20T09:59:37.266Z,1014.22
2019-02-20T10:00:37.260Z,1014.23
2019-02-20T10:01:37.259Z,1014.23
2019-02-20T10:02:37.250Z,1014.21
2019-02-20T10:03:37.248Z,1014.21
2019-02-20T10:04:37.263Z,1014.25
2019-02-20T10:05:37.639Z,1014.24
2019-02-20T10:07:37.226Z,1014.25
2019-02-20T10:08:37.219Z,1014.29
2019-02-20T10:09:37.220Z,1014.26
2019-02-20T10:11:37.209Z,1014.30
2019-02-20T10:12:38.623Z,1014.34
2019-02-20T10:14:37.197Z,1014.34
2019-02-20T10:15:37.193Z,1014.35
2019-02-20T10:16:37.187Z,1014.35
2019-02-20T10:17:37.178Z,1014.32
2019-02-20T10:18:37.178Z,1014.35
2019-02-20T10:19:37.573Z,1014.38
2019-02-20T10:20:37.171Z,1014.40
2019-02-20T10:22:37.165Z,1014.45
2019-02-20T10:23:37.151Z,1014.43
2019-02-20T10:24:37.152Z,1014.42
2019-02-20T10:25:37.145Z,1014.42
2019-02-20T10:26:37.144Z,1014.48
2019-02-20T10:27:37.142Z,1014.41
2019-02-20T10:28:37.136Z,1014.50
2019-02-20T10:29:37.130Z,1014.45
2019-02-20T10:30:37.124Z,1014.50
2019-02-20T10:32:10.333Z,1014.54
2019-02-20T10:32:37.115Z,1014.53
2019-02-20T10:34:37.112Z,1014.56
2019-02-20T10:35:37.305Z,1014.58
2019-02-20T10:36:37.101Z,1014.55
2019-02-20T10:37:37.098Z,1014.59
2019-02-20T10:38:37.093Z,1014.57
2019-02-20T10:39:37.095Z,1014.61
2019-02-20T10:41:37.087Z,1014.59
2019-02-20T10:42:37.080Z,1014.56
2019-02-20T10:43:37.073Z,1014.53
2019-02-20T10:44:37.274Z,1014.57
2019-02-20T10:45:37.075Z,1014.60
2019-02-20T10:46:37.065Z,1014.63
2019-02-20T10:48:37.065Z,1014.61
2019-02-20T10:49:37.055Z,1014.62
2019-02-20T10:50:37.052Z,1014.63
2019-02-20T10:51:37.051Z,1014.65
2019-02-20T10:52:37.039Z,1014.63
2019-02-20T10:53:37.240Z,1014.67
2019-02-20T10:54:37.034Z,1014.64
2019-02-20T10:55:37.033Z,1014.70
2019-02-20T10:56:37.031Z,1014.62
2019-02-20T10:57:37.227Z,1014.61
2019-02-20T11:00:37.011Z,1014.62
2019-02-20T11:01:37.011Z,1014.58
2019-02-20T11:02:36.999Z,1014.63
2019-02-20T11:03:36.997Z,1014.62
2019-02-20T11:04:36.995Z,1014.64
2019-02-20T11:05:36.994Z,1014.64
2019-02-20T11:07:36.981Z,1014.66
2019-02-20T11:08:36.983Z,1014.68
2019-02-20T11:09:36.978Z,1014.67
2019-02-20T11:11:36.970Z,1014.65
2019-02-20T11:12:36.967Z,1014.65
2019-02-20T11:13:37.157Z,1014.69
2019-02-20T11:14:37.853Z,1014.70
2019-02-20T11:15:36.949Z,1014.65
2019-02-20T11:16:36.949Z,1014.66
2019-02-20T11:17:37.383Z,1014.66
2019-02-20T11:18:36.941Z,1014.61
2019-02-20T11:20:37.134Z,1014.67
2019-02-20T11:21:36.935Z,1014.67
2019-02-20T11:22:36.939Z,1014.67
2019-02-20T11:23:36.920Z,1014.71
2019-02-20T11:24:36.915Z,1014.72
2019-02-20T11:26:46.075Z,1014.70
2019-02-20T11:27:37.107Z,1014.73
2019-02-20T11:28:37.101Z,1014.68
2019-02-20T11:29:36.901Z,1014.76
2019-02-20T11:30:37.105Z,1014.72
2019-02-20T11:32:36.895Z,1014.74
2019-02-20T11:33:36.890Z,1014.76
2019-02-20T11:34:36.885Z,1014.74
2019-02-20T11:35:36.886Z,1014.69
2019-02-20T11:36:37.078Z,1014.66
2019-02-20T11:37:36.882Z,1014.64
2019-02-20T11:38:36.879Z,1014.66
2019-02-20T11:39:37.863Z,1014.62
2019-02-20T11:40:36.871Z,1014.65
2019-02-20T11:41:36.864Z,1014.66
2019-02-20T11:42:36.864Z,1014.66
2019-02-20T11:43:36.857Z,1014.61
2019-02-20T11:44:36.853Z,1014.59
2019-02-20T11:45:36.848Z,1014.59
2019-02-20T11:46:36.852Z,1014.62
2019-02-20T11:48:36.840Z,1014.64
2019-02-20T11:49:37.039Z,1014.59
2019-02-20T11:50:36.833Z,1014.62
2019-02-20T11:52:38.581Z,1014.59
2019-02-20T11:53:37.508Z,1014.58
2019-02-20T11:55:36.820Z,1014.63
2019-02-20T11:56:36.807Z,1014.60
2019-02-20T11:57:36.811Z,1014.57
2019-02-20T11:58:36.806Z,1014.62
2019-02-20T11:59:37.000Z,1014.54
2019-02-20T12:00:36.799Z,1014.55
2019-02-20T12:01:36.793Z,1014.52
2019-02-20T12:02:37.655Z,1014.56
2019-02-20T12:03:36.795Z,1014.61
2019-02-20T12:04:36.786Z,1014.62
2019-02-20T12:05:36.780Z,1014.61
2019-02-20T12:06:36.774Z,1014.64
2019-02-20T12:07:36.780Z,1014.59
2019-02-20T12:08:36.771Z,1014.57
2019-02-20T12:09:36.767Z,1014.55
2019-02-20T12:10:36.767Z,1014.58
2019-02-20T12:11:36.770Z,1014.60
2019-02-20T12:13:36.753Z,1014.64
2019-02-20T12:14:36.755Z,1014.64
2019-02-20T12:15:36.747Z,1014.64
2019-02-20T12:16:36.747Z,1014.65
2019-02-20T12:17:36.744Z,1014.65
2019-02-20T12:19:36.744Z,1014.68
2019-02-20T12:20:36.742Z,1014.69
2019-02-20T12:21:36.739Z,1014.66
2019-02-20T12:22:36.742Z,1014.67
2019-02-20T12:23:37.043Z,1014.68
2019-02-20T12:24:36.738Z,1014.68
2019-02-20T12:25:36.740Z,1014.68
2019-02-20T12:26:36.739Z,1014.65
2019-02-20T12:27:36.746Z,1014.70
2019-02-20T12:28:36.733Z,1014.63
2019-02-20T12:29:36.735Z,1014.66
2019-02-20T12:30:38.084Z,1014.62
2019-02-20T12:31:36.937Z,1014.59
2019-02-20T12:32:36.735Z,1014.66
2019-02-20T12:33:36.728Z,1014.59
2019-02-20T12:34:36.935Z,1014.58
2019-02-20T12:37:36.725Z,1014.55
2019-02-20T12:38:37.239Z,1014.58
2019-02-20T12:39:36.718Z,1014.53
2019-02-20T12:40:36.717Z,1014.55
2019-02-20T12:41:36.721Z,1014.51
2019-02-20T12:42:36.718Z,1014.53
2019-02-20T12:43:36.772Z,1014.55
2019-02-20T12:44:36.712Z,1014.55
2019-02-20T12:45:36.715Z,1014.54
2019-02-20T12:46:36.716Z,1014.56
2019-02-20T12:47:36.708Z,1014.51
2019-02-20T12:48:36.706Z,1014.53
2019-02-20T12:49:36.708Z,1014.54
2019-02-20T12:50:36.705Z,1014.56
2019-02-20T12:51:36.696Z,1014.57
2019-02-20T12:52:36.701Z,1014.58
2019-02-20T12:53:36.692Z,1014.52
2019-02-20T12:54:36.694Z,1014.50
2019-02-20T12:55:36.888Z,1014.50
2019-02-20T12:56:43.726Z,1014.46
2019-02-20T12:57:36.687Z,1014.50
2019-02-20T12:58:38.326Z,1014.49
2019-02-20T12:59:36.878Z,1014.54
2019-02-20T13:01:36.681Z,1014.54
2019-02-20T13:02:36.678Z,1014.52
2019-02-20T13:03:36.681Z,1014.51
2019-02-20T13:04:36.674Z,1014.55
2019-02-20T13:05:36.673Z,1014.53
2019-02-20T13:06:36.664Z,1014.51
2019-02-20T13:07:36.664Z,1014.43
2019-02-20T13:08:36.668Z,1014.47
2019-02-20T13:09:36.665Z,1014.47
2019-02-20T13:10:36.659Z,1014.44
2019-02-20T13:11:36.658Z,1014.46
2019-02-20T13:12:36.657Z,1014.51
2019-02-20T13:13:36.654Z,1014.48
2019-02-20T13:14:36.854Z,1014.50
2019-02-20T13:15:36.649Z,1014.47
2019-02-20T13:16:36.651Z,1014.47
2019-02-20T13:18:36.648Z,1014.46
2019-02-20T13:19:36.647Z,1014.43
2019-02-20T13:20:37.856Z,1014.44
2019-02-20T13:22:36.645Z,1014.48
2019-02-20T13:23:36.643Z,1014.44
2019-02-20T13:24:36.641Z,1014.46
2019-02-20T13:25:38.502Z,1014.57
2019-02-20T13:26:36.631Z,1014.47
2019-02-20T13:28:36.830Z,1014.42
2019-02-20T13:29:36.634Z,1014.48
2019-02-20T13:30:36.629Z,1014.45
2019-02-20T13:31:36.626Z,1014.39
2019-02-20T13:32:36.627Z,1014.43
2019-02-20T13:33:36.618Z,1014.39
2019-02-20T13:34:36.628Z,1014.47
2019-02-20T13:35:36.613Z,1014.47
2019-02-20T13:37:36.817Z,1014.39
2019-02-20T13:38:36.609Z,1014.35
2019-02-20T13:39:36.612Z,1014.37
2019-02-20T13:40:36.603Z,1014.38
2019-02-20T13:41:36.602Z,1014.36
2019-02-20T13:42:36.606Z,1014.44
2019-02-20T13:43:36.598Z,1014.38
2019-02-20T13:44:36.596Z,1014.37
2019-02-20T13:45:36.792Z,1014.41
2019-02-20T13:46:36.591Z,1014.39